createdAt,value
2017-12-25T00:00:04.054Z,1008.41
2017-12-25T00:01:04.069Z,1008.36
2017-12-25T00:02:04.085Z,1008.36
2017-12-25T00:03:04.098Z,1008.38
2017-12-25T00:04:04.112Z,1008.4
2017-12-25T00:05:04.127Z,1008.38
2017-12-25T00:06:04.191Z,1008.39
2017-12-25T00:07:04.157Z,1008.38
2017-12-25T00:08:04.171Z,1008.41
2017-12-25T00:09:04.190Z,1008.38
2017-12-25T00:10:04.202Z,1008.41
2017-12-25T00:11:04.215Z,1008.37
2017-12-25T00:12:04.231Z,1008.36
2017-12-25T00:13:04.245Z,1008.36
2017-12-25T00:14:04.260Z,1008.35
2017-12-25T00:15:04.283Z,1008.3
2017-12-25T00:16:04.292Z,1008.31
2017-12-25T00:17:04.305Z,1008.28
2017-12-25T00:18:04.318Z,1008.28
2017-12-25T00:19:04.332Z,1008.27
2017-12-25T00:20:04.356Z,1008.27
2017-12-25T00:21:04.363Z,1008.24
2017-12-25T00:22:04.377Z,1008.27
2017-12-25T00:23:04.392Z,1008.28
2017-12-25T00:24:04.408Z,1008.22
2017-12-25T00:25:04.421Z,1008.27
2017-12-25T00:26:04.435Z,1008.29
2017-12-25T00:27:04.452Z,1008.22
2017-12-25T00:28:04.467Z,1008.27
2017-12-25T00:29:04.482Z,1008.07
2017-12-25T00:30:04.494Z,1008.24
2017-12-25T00:31:04.509Z,1008.27
2017-12-25T00:32:04.524Z,1008.19
2017-12-25T00:33:04.538Z,1008.2
2017-12-25T00:34:04.553Z,1008.14
2017-12-25T00:35:04.568Z,1008.15
2017-12-25T00:36:04.587Z,1008.01
2017-12-25T00:37:04.597Z,1008.09
2017-12-25T00:38:04.612Z,1008.11
2017-12-25T00:39:04.626Z,1008.07
2017-12-25T00:40:04.640Z,1008.11
2017-12-25T00:41:04.656Z,1008.04
2017-12-25T00:42:04.670Z,1008.03
2017-12-25T00:43:04.684Z,1008.07
2017-12-25T00:44:04.698Z,1008.12
2017-12-25T00:45:04.713Z,1008.11
2017-12-25T00:46:04.731Z,1008.12
2017-12-25T00:47:04.744Z,1008.13
2017-12-25T00:48:04.757Z,1008.11
2017-12-25T00:49:04.775Z,1008.14
2017-12-25T00:50:04.787Z,1008.11
2017-12-25T00:51:04.800Z,1008.09
2017-12-25T00:52:04.819Z,1008.1
2017-12-25T00:53:04.831Z,1008.11
2017-12-25T00:54:04.846Z,1008.07
2017-12-25T00:55:04.859Z,1008.05
2017-12-25T00:56:04.877Z,1008.06
2017-12-25T00:57:04.890Z,1008.04
2017-12-25T00:58:04.905Z,1008.04
2017-12-25T00:59:04.918Z,1008.06
2017-12-25T01:00:04.934Z,1008.03
2017-12-25T01:01:05.000Z,1008.06
2017-12-25T01:02:04.962Z,1008.1
2017-12-25T01:03:04.983Z,1008.02
2017-12-25T01:04:04.995Z,1008.06
2017-12-25T01:05:05.008Z,1008.02
2017-12-25T01:06:05.021Z,1008.08
2017-12-25T01:07:05.038Z,1008.05
2017-12-25T01:08:05.052Z,1008.02
2017-12-25T01:09:05.066Z,1008
2017-12-25T01:10:05.081Z,1008.01
2017-12-25T01:11:05.094Z,1007.97
2017-12-25T01:12:05.110Z,1007.94
2017-12-25T01:13:05.144Z,1007.92
2017-12-25T01:14:05.139Z,1007.97
2017-12-25T01:15:05.153Z,1007.92
2017-12-25T01:16:05.169Z,1007.99
2017-12-25T01:17:05.182Z,1008.01
2017-12-25T01:18:05.196Z,1008.1
2017-12-25T01:19:05.211Z,1008.05
2017-12-25T01:20:05.227Z,1008.09
2017-12-25T01:21:05.241Z,1008.11
2017-12-25T01:22:05.256Z,1008.07
2017-12-25T01:23:05.269Z,1008.06
2017-12-25T01:24:05.284Z,1008.12
2017-12-25T01:25:05.298Z,1008.06
2017-12-25T01:26:05.322Z,1008.08
2017-12-25T01:27:05.334Z,1008.03
2017-12-25T01:28:05.342Z,1008.13
2017-12-25T01:29:05.357Z,1008.13
2017-12-25T01:30:05.373Z,1008.09
2017-12-25T01:31:05.387Z,1008.13
2017-12-25T01:32:05.401Z,1008.17
2017-12-25T01:33:05.416Z,1008.19
2017-12-25T01:34:05.432Z,1008.22
2017-12-25T01:35:05.445Z,1008.23
2017-12-25T01:36:05.459Z,1008.25
2017-12-25T01:37:05.475Z,1008.26
2017-12-25T01:38:05.489Z,1008.22
2017-12-25T01:39:05.503Z,1008.28
2017-12-25T01:40:05.518Z,1008.19
2017-12-25T01:41:05.532Z,1008.3
2017-12-25T01:42:05.548Z,1008.21
2017-12-25T01:43:05.563Z,1008.2
2017-12-25T01:44:05.578Z,1008.2
2017-12-25T01:45:05.598Z,1008.19
2017-12-25T01:46:05.606Z,1008.17
2017-12-25T01:47:05.623Z,1008.09
2017-12-25T01:48:05.636Z,1008.22
2017-12-25T01:49:05.650Z,1008.16
2017-12-25T01:50:05.671Z,1008.18
2017-12-25T01:51:05.681Z,1008.15
2017-12-25T01:52:05.696Z,1008.16
2017-12-25T01:53:05.708Z,1008.13
2017-12-25T01:54:05.722Z,1008.14
2017-12-25T01:55:05.739Z,1008.14
2017-12-25T01:56:05.753Z,1008.16
2017-12-25T01:57:05.767Z,1008.17
2017-12-25T01:58:05.782Z,1008.16
2017-12-25T01:59:05.796Z,1008.19
2017-12-25T02:00:05.811Z,1008.15
2017-12-25T02:01:05.824Z,1008.16
2017-12-25T02:02:05.839Z,1008.16
2017-12-25T02:03:05.853Z,1008.17
2017-12-25T02:04:05.868Z,1008.14
2017-12-25T02:05:05.883Z,1008.16
2017-12-25T02:06:05.898Z,1008.13
2017-12-25T02:07:05.912Z,1008.21
2017-12-25T02:08:05.926Z,1008.18
2017-12-25T02:09:05.942Z,1008.15
2017-12-25T02:10:05.956Z,1008.18
2017-12-25T02:11:05.974Z,1008.1
2017-12-25T02:12:05.986Z,1008.13
2017-12-25T02:13:06.001Z,1008.13
2017-12-25T02:14:06.018Z,1008.1
2017-12-25T02:15:06.031Z,1008.08
2017-12-25T02:16:06.047Z,1008.06
2017-12-25T02:17:06.062Z,1008.07
2017-12-25T02:18:06.076Z,1008.06
2017-12-25T02:19:06.087Z,1008.04
2017-12-25T02:20:06.101Z,1008.05
2017-12-25T02:21:06.116Z,1008.03
2017-12-25T02:22:06.131Z,1008.05
2017-12-25T02:23:06.145Z,1008.02
2017-12-25T02:24:06.160Z,1007.99
2017-12-25T02:25:06.175Z,1007.97
2017-12-25T02:26:06.189Z,1007.96
2017-12-25T02:27:06.204Z,1007.96
2017-12-25T02:28:06.219Z,1007.97
2017-12-25T02:29:06.278Z,1008.01
2017-12-25T02:30:06.248Z,1007.95
2017-12-25T02:31:06.263Z,1007.99
2017-12-25T02:32:06.278Z,1007.93
2017-12-25T02:33:06.292Z,1007.95
2017-12-25T02:34:06.305Z,1007.94
2017-12-25T02:35:06.323Z,1007.96
2017-12-25T02:36:06.335Z,1007.95
2017-12-25T02:37:06.349Z,1007.95
2017-12-25T02:38:06.397Z,1007.91
2017-12-25T02:39:06.378Z,1007.92
2017-12-25T02:40:06.394Z,1007.91
2017-12-25T02:41:06.408Z,1007.89
2017-12-25T02:42:06.423Z,1007.9
2017-12-25T02:43:06.439Z,1007.89
2017-12-25T02:44:06.453Z,1007.84
2017-12-25T02:45:06.465Z,1007.84
2017-12-25T02:46:06.480Z,1007.84
2017-12-25T02:47:06.496Z,1007.84
2017-12-25T02:48:06.512Z,1007.81
2017-12-25T02:49:06.526Z,1007.83
2017-12-25T02:50:06.538Z,1007.85
2017-12-25T02:51:06.553Z,1007.89
2017-12-25T02:52:06.616Z,1007.8
2017-12-25T02:53:06.582Z,1007.86
2017-12-25T02:54:06.601Z,1007.83
2017-12-25T02:55:06.612Z,1007.85
2017-12-25T02:56:06.636Z,1007.8
2017-12-25T02:57:06.639Z,1007.81
2017-12-25T02:58:06.655Z,1007.78
2017-12-25T02:59:06.669Z,1007.82
2017-12-25T03:00:06.685Z,1007.73
2017-12-25T03:01:06.698Z,1007.77
2017-12-25T03:02:06.713Z,1007.74
2017-12-25T03:03:06.726Z,1007.73
2017-12-25T03:04:06.743Z,1007.66
2017-12-25T03:05:06.757Z,1007.7
2017-12-25T03:06:06.770Z,1007.7
2017-12-25T03:07:06.784Z,1007.64
2017-12-25T03:08:06.799Z,1007.69
2017-12-25T03:09:06.813Z,1007.71
2017-12-25T03:10:06.829Z,1007.7
2017-12-25T03:11:06.843Z,1007.67
2017-12-25T03:12:06.862Z,1007.67
2017-12-25T03:13:06.872Z,1007.73
2017-12-25T03:14:06.886Z,1007.73
2017-12-25T03:15:06.901Z,1007.76
2017-12-25T03:16:06.915Z,1007.72
2017-12-25T03:17:06.931Z,1007.72
2017-12-25T03:18:06.945Z,1007.72
2017-12-25T03:19:06.960Z,1007.72
2017-12-25T03:20:06.975Z,1007.71
2017-12-25T03:21:06.987Z,1007.72
2017-12-25T03:22:07.004Z,1007.73
2017-12-25T03:23:07.025Z,1007.7
2017-12-25T03:24:07.035Z,1007.67
2017-12-25T03:25:07.047Z,1007.63
2017-12-25T03:26:07.061Z,1007.67
2017-12-25T03:27:07.077Z,1007.62
2017-12-25T03:28:07.093Z,1007.64
2017-12-25T03:29:07.105Z,1007.66
2017-12-25T03:30:07.120Z,1007.65
2017-12-25T03:31:07.136Z,1007.58
2017-12-25T03:32:07.198Z,1007.63
2017-12-25T03:33:07.163Z,1007.63
2017-12-25T03:34:07.181Z,1007.67
2017-12-25T03:35:07.192Z,1007.66
2017-12-25T03:36:07.207Z,1007.66
2017-12-25T03:37:07.223Z,1007.61
2017-12-25T03:38:07.235Z,1007.62
2017-12-25T03:39:07.249Z,1007.64
2017-12-25T03:40:07.264Z,1007.65
2017-12-25T03:41:07.281Z,1007.61
2017-12-25T03:42:07.293Z,1007.66
2017-12-25T03:43:07.309Z,1007.65
2017-12-25T03:44:07.322Z,1007.63
2017-12-25T03:45:07.338Z,1007.68
2017-12-25T03:46:07.355Z,1007.65
2017-12-25T03:47:07.368Z,1007.66
2017-12-25T03:48:07.380Z,1007.65
2017-12-25T03:49:07.395Z,1007.65
2017-12-25T03:50:07.408Z,1007.64
2017-12-25T03:51:07.425Z,1007.63
2017-12-25T03:52:07.488Z,1007.67
2017-12-25T03:53:07.453Z,1007.66
2017-12-25T03:54:07.467Z,1007.63
2017-12-25T03:55:07.481Z,1007.61
2017-12-25T03:56:07.497Z,1007.64
2017-12-25T03:57:07.562Z,1007.64
2017-12-25T03:58:07.524Z,1007.64
2017-12-25T03:59:07.539Z,1007.65
2017-12-25T04:00:07.553Z,1007.63
2017-12-25T04:01:07.568Z,1007.64
2017-12-25T04:02:07.632Z,1007.66
2017-12-25T04:03:07.613Z,1007.67
2017-12-25T04:04:07.612Z,1007.63
2017-12-25T04:05:07.625Z,1007.63
2017-12-25T04:06:07.639Z,1007.61
2017-12-25T04:07:07.704Z,1007.66
2017-12-25T04:08:07.669Z,1007.58
2017-12-25T04:09:07.683Z,1007.59
2017-12-25T04:10:07.698Z,1007.65
2017-12-25T04:11:07.713Z,1007.62
2017-12-25T04:12:07.728Z,1007.57
2017-12-25T04:13:07.742Z,1007.58
2017-12-25T04:14:07.756Z,1007.62
2017-12-25T04:15:07.770Z,1007.6
2017-12-25T04:16:07.784Z,1007.6
2017-12-25T04:17:07.900Z,1007.64
2017-12-25T04:18:07.819Z,1007.66
2017-12-25T04:19:07.827Z,1007.64
2017-12-25T04:20:07.841Z,1007.62
2017-12-25T04:21:07.857Z,1007.63
2017-12-25T04:22:07.872Z,1007.63
2017-12-25T04:23:07.886Z,1007.66
2017-12-25T04:24:07.899Z,1007.65
2017-12-25T04:25:07.915Z,1007.62
2017-12-25T04:26:07.929Z,1007.59
2017-12-25T04:27:07.942Z,1007.62
2017-12-25T04:28:07.957Z,1007.62
2017-12-25T04:29:07.972Z,1007.62
2017-12-25T04:30:07.986Z,1007.61
2017-12-25T04:31:08.001Z,1007.64
2017-12-25T04:32:08.017Z,1007.54
2017-12-25T04:33:08.030Z,1007.64
2017-12-25T04:34:08.045Z,1007.62
2017-12-25T04:35:08.058Z,1007.63
2017-12-25T04:36:08.071Z,1007.6
2017-12-25T04:37:08.088Z,1007.68
2017-12-25T04:38:08.103Z,1007.63
2017-12-25T04:39:08.115Z,1007.6
2017-12-25T04:40:08.132Z,1007.59
2017-12-25T04:41:08.144Z,1007.61
2017-12-25T04:42:08.159Z,1007.61
2017-12-25T04:43:08.174Z,1007.61
2017-12-25T04:44:08.188Z,1007.55
2017-12-25T04:45:08.203Z,1007.59
2017-12-25T04:46:08.219Z,1007.58
2017-12-25T04:47:08.232Z,1007.62
2017-12-25T04:48:08.245Z,1007.63
2017-12-25T04:49:08.259Z,1007.64
2017-12-25T04:50:08.274Z,1007.68
2017-12-25T04:51:08.291Z,1007.62
2017-12-25T04:52:08.303Z,1007.64
2017-12-25T04:53:08.318Z,1007.62
2017-12-25T04:54:08.334Z,1007.64
2017-12-25T04:55:08.386Z,1007.6
2017-12-25T04:56:08.364Z,1007.65
2017-12-25T04:57:08.376Z,1007.6
2017-12-25T04:58:08.390Z,1007.57
2017-12-25T04:59:08.404Z,1007.57
2017-12-25T05:00:08.419Z,1007.59
2017-12-25T05:01:08.435Z,1007.67
2017-12-25T05:02:08.449Z,1007.6
2017-12-25T05:03:08.467Z,1007.6
2017-12-25T05:04:08.476Z,1007.6
2017-12-25T05:05:08.491Z,1007.61
2017-12-25T05:06:08.505Z,1007.6
2017-12-25T05:07:08.520Z,1007.56
2017-12-25T05:08:08.534Z,1007.51
2017-12-25T05:09:08.548Z,1007.52
2017-12-25T05:10:08.563Z,1007.51
2017-12-25T05:11:08.577Z,1007.51
2017-12-25T05:12:08.592Z,1007.52
2017-12-25T05:13:08.610Z,1007.52
2017-12-25T05:14:08.620Z,1007.52
2017-12-25T05:15:08.634Z,1007.5
2017-12-25T05:16:08.649Z,1007.52
2017-12-25T05:17:08.664Z,1007.5
2017-12-25T05:18:08.676Z,1007.51
2017-12-25T05:19:08.692Z,1007.43
2017-12-25T05:20:08.706Z,1007.49
2017-12-25T05:21:08.721Z,1007.45
2017-12-25T05:22:08.734Z,1007.45
2017-12-25T05:23:08.750Z,1007.4
2017-12-25T05:24:08.763Z,1007.41
2017-12-25T05:25:08.780Z,1007.42
2017-12-25T05:26:08.791Z,1007.33
2017-12-25T05:27:08.805Z,1007.37
2017-12-25T05:28:08.821Z,1007.36
2017-12-25T05:29:08.834Z,1007.35
2017-12-25T05:30:08.848Z,1007.34
2017-12-25T05:31:08.865Z,1007.36
2017-12-25T05:32:08.879Z,1007.38
2017-12-25T05:33:08.892Z,1007.36
2017-12-25T05:34:08.907Z,1007.33
2017-12-25T05:35:08.921Z,1007.33
2017-12-25T05:36:08.936Z,1007.32
2017-12-25T05:37:08.949Z,1007.31
2017-12-25T05:38:08.965Z,1007.28
2017-12-25T05:39:08.980Z,1007.23
2017-12-25T05:40:08.992Z,1007.22
2017-12-25T05:41:09.007Z,1007.22
2017-12-25T05:42:09.022Z,1007.26
2017-12-25T05:43:09.036Z,1007.21
2017-12-25T05:44:09.052Z,1007.21
2017-12-25T05:45:09.064Z,1007.15
2017-12-25T05:46:09.079Z,1007.22
2017-12-25T05:47:09.093Z,1007.15
2017-12-25T05:48:09.106Z,1007.18
2017-12-25T05:49:09.121Z,1007.14
2017-12-25T05:50:09.139Z,1007.13
2017-12-25T05:51:09.149Z,1007.18
2017-12-25T05:52:09.165Z,1007.14
2017-12-25T05:53:09.186Z,1007.15
2017-12-25T05:54:09.192Z,1007.12
2017-12-25T05:55:09.239Z,1007.16
2017-12-25T05:56:09.221Z,1007.16
2017-12-25T05:57:09.237Z,1007.12
2017-12-25T05:58:09.293Z,1007.14
2017-12-25T05:59:09.265Z,1007.15
2017-12-25T06:00:09.278Z,1007.16
2017-12-25T06:01:09.292Z,1007.19
2017-12-25T06:02:09.307Z,1007.17
2017-12-25T06:03:09.324Z,1007.16
2017-12-25T06:04:09.336Z,1007.23
2017-12-25T06:05:09.349Z,1007.18
2017-12-25T06:06:09.365Z,1007.18
2017-12-25T06:07:09.379Z,1007.17
2017-12-25T06:08:09.393Z,1007.17
2017-12-25T06:09:09.407Z,1007.19
2017-12-25T06:10:09.421Z,1007.2
2017-12-25T06:11:09.437Z,1007.23
2017-12-25T06:12:09.466Z,1007.23
2017-12-25T06:13:09.467Z,1007.19
2017-12-25T06:14:09.478Z,1007.17
2017-12-25T06:15:09.502Z,1007.2
2017-12-25T06:16:09.517Z,1007.21
2017-12-25T06:17:09.521Z,1007.23
2017-12-25T06:18:09.540Z,1007.22
2017-12-25T06:19:09.555Z,1007.18
2017-12-25T06:20:09.564Z,1007.18
2017-12-25T06:21:09.578Z,1007.16
2017-12-25T06:22:09.594Z,1007.26
2017-12-25T06:23:09.608Z,1007.29
2017-12-25T06:24:09.621Z,1007.25
2017-12-25T06:25:09.637Z,1007.27
2017-12-25T06:26:09.651Z,1007.29
2017-12-25T06:27:09.665Z,1007.22
2017-12-25T06:28:09.678Z,1007.24
2017-12-25T06:29:09.695Z,1007.23
2017-12-25T06:30:09.756Z,1007.25
2017-12-25T06:31:09.721Z,1007.26
2017-12-25T06:32:09.736Z,1007.33
2017-12-25T06:33:09.754Z,1007.31
2017-12-25T06:34:09.765Z,1007.24
2017-12-25T06:35:09.779Z,1007.26
2017-12-25T06:36:09.793Z,1007.24
2017-12-25T06:37:09.809Z,1007.28
2017-12-25T06:38:09.822Z,1007.25
2017-12-25T06:39:09.836Z,1007.28
2017-12-25T06:40:09.850Z,1007.26
2017-12-25T06:41:09.864Z,1007.3
2017-12-25T06:42:09.879Z,1007.31
2017-12-25T06:43:09.893Z,1007.29
2017-12-25T06:44:09.907Z,1007.27
2017-12-25T06:45:09.921Z,1007.29
2017-12-25T06:46:09.935Z,1007.32
2017-12-25T06:47:09.950Z,1007.34
2017-12-25T06:48:10.014Z,1007.27
2017-12-25T06:49:09.978Z,1007.3
2017-12-25T06:50:09.993Z,1007.29
2017-12-25T06:51:10.011Z,1007.33
2017-12-25T06:52:10.023Z,1007.28
2017-12-25T06:53:10.035Z,1007.29
2017-12-25T06:54:10.051Z,1007.27
2017-12-25T06:55:10.062Z,1007.23
2017-12-25T06:56:10.080Z,1007.28
2017-12-25T06:57:10.092Z,1007.3
2017-12-25T06:58:10.107Z,1007.3
2017-12-25T06:59:10.121Z,1007.39
2017-12-25T07:00:10.135Z,1007.33
2017-12-25T07:01:10.150Z,1007.25
2017-12-25T07:02:10.163Z,1007.28
2017-12-25T07:03:10.178Z,1007.22
2017-12-25T07:04:10.191Z,1007.26
2017-12-25T07:05:10.206Z,1007.31
2017-12-25T07:06:10.219Z,1007.27
2017-12-25T07:07:10.236Z,1007.29
2017-12-25T07:08:10.254Z,1007.32
2017-12-25T07:09:10.263Z,1007.34
2017-12-25T07:10:10.277Z,1007.32
2017-12-25T07:11:10.291Z,1007.26
2017-12-25T07:12:10.309Z,1007.27
2017-12-25T07:13:10.320Z,1007.35
2017-12-25T07:14:10.334Z,1007.34
2017-12-25T07:15:10.348Z,1007.32
2017-12-25T07:16:10.364Z,1007.31
2017-12-25T07:17:10.377Z,1007.33
2017-12-25T07:18:10.394Z,1007.33
2017-12-25T07:19:10.407Z,1007.32
2017-12-25T07:20:10.418Z,1007.34
2017-12-25T07:21:10.434Z,1007.31
2017-12-25T07:22:10.449Z,1007.31
2017-12-25T07:23:10.461Z,1007.35
2017-12-25T07:24:10.476Z,1007.29
2017-12-25T07:25:10.492Z,1007.3
2017-12-25T07:26:10.503Z,1007.31
2017-12-25T07:27:10.520Z,1007.32
2017-12-25T07:28:10.533Z,1007.32
2017-12-25T07:29:10.550Z,1007.33
2017-12-25T07:30:10.561Z,1007.37
2017-12-25T07:31:10.575Z,1007.33
2017-12-25T07:32:10.590Z,1007.33
2017-12-25T07:33:10.603Z,1007.45
2017-12-25T07:34:10.621Z,1007.35
2017-12-25T07:35:10.634Z,1007.35
2017-12-25T07:36:10.647Z,1007.32
2017-12-25T07:37:10.660Z,1007.33
2017-12-25T07:38:10.674Z,1007.35
2017-12-25T07:39:10.689Z,1007.36
2017-12-25T07:40:10.703Z,1007.37
2017-12-25T07:41:10.732Z,1007.33
2017-12-25T07:42:10.733Z,1007.33
2017-12-25T07:43:10.745Z,1007.32
2017-12-25T07:44:10.759Z,1007.36
2017-12-25T07:45:10.773Z,1007.34
2017-12-25T07:46:10.788Z,1007.42
2017-12-25T07:47:10.802Z,1007.4
2017-12-25T07:48:10.815Z,1007.33
2017-12-25T07:49:10.830Z,1007.31
2017-12-25T07:50:10.848Z,1007.31
2017-12-25T07:51:10.859Z,1007.33
2017-12-25T07:52:10.876Z,1007.35
2017-12-25T07:53:10.886Z,1007.28
2017-12-25T07:54:10.900Z,1007.31
2017-12-25T07:55:10.916Z,1007.34
2017-12-25T07:56:10.929Z,1007.34
2017-12-25T07:57:10.944Z,1007.31
2017-12-25T07:58:10.958Z,1007.36
2017-12-25T07:59:10.972Z,1007.35
2017-12-25T08:00:10.987Z,1007.35
2017-12-25T08:01:11.001Z,1007.33
2017-12-25T08:02:11.015Z,1007.35
2017-12-25T08:03:11.030Z,1007.37
2017-12-25T08:04:11.044Z,1007.32
2017-12-25T08:05:11.058Z,1007.35
2017-12-25T08:06:11.072Z,1007.35
2017-12-25T08:07:11.085Z,1007.35
2017-12-25T08:08:11.101Z,1007.33
2017-12-25T08:09:11.115Z,1007.35
2017-12-25T08:10:11.129Z,1007.42
2017-12-25T08:11:11.143Z,1007.33
2017-12-25T08:12:11.157Z,1007.38
2017-12-25T08:13:11.171Z,1007.41
2017-12-25T08:14:11.185Z,1007.39
2017-12-25T08:15:11.199Z,1007.41
2017-12-25T08:16:11.214Z,1007.38
2017-12-25T08:17:11.227Z,1007.4
2017-12-25T08:18:11.242Z,1007.41
2017-12-25T08:19:11.256Z,1007.39
2017-12-25T08:20:11.271Z,1007.49
2017-12-25T08:21:11.283Z,1007.42
2017-12-25T08:22:11.300Z,1007.39
2017-12-25T08:23:11.313Z,1007.4
2017-12-25T08:24:11.326Z,1007.39
2017-12-25T08:25:11.341Z,1007.35
2017-12-25T08:26:11.404Z,1007.36
2017-12-25T08:27:11.369Z,1007.39
2017-12-25T08:28:11.383Z,1007.34
2017-12-25T08:29:11.400Z,1007.37
2017-12-25T08:30:11.415Z,1007.31
2017-12-25T08:31:11.427Z,1007.34
2017-12-25T08:32:11.444Z,1007.29
2017-12-25T08:33:11.456Z,1007.38
2017-12-25T08:34:11.469Z,1007.38
2017-12-25T08:35:11.483Z,1007.39
2017-12-25T08:36:11.496Z,1007.37
2017-12-25T08:37:11.512Z,1007.38
2017-12-25T08:38:11.531Z,1007.34
2017-12-25T08:39:11.539Z,1007.36
2017-12-25T08:40:11.554Z,1007.37
2017-12-25T08:41:11.568Z,1007.31
2017-12-25T08:42:11.586Z,1007.28
2017-12-25T08:43:11.596Z,1007.34
2017-12-25T08:44:11.609Z,1007.28
2017-12-25T08:45:11.624Z,1007.36
2017-12-25T08:46:11.639Z,1007.37
2017-12-25T08:47:11.656Z,1007.29
2017-12-25T08:48:11.667Z,1007.29
2017-12-25T08:49:11.681Z,1007.34
2017-12-25T08:50:11.696Z,1007.35
2017-12-25T08:51:11.709Z,1007.35
2017-12-25T08:52:11.726Z,1007.36
2017-12-25T08:53:11.738Z,1007.33
2017-12-25T08:54:11.750Z,1007.31
2017-12-25T08:55:11.774Z,1007.31
2017-12-25T08:56:11.780Z,1007.35
2017-12-25T08:57:11.794Z,1007.36
2017-12-25T08:58:11.812Z,1007.3
2017-12-25T08:59:11.823Z,1007.32
2017-12-25T09:00:11.837Z,1007.33
2017-12-25T09:01:11.851Z,1007.34
2017-12-25T09:02:11.871Z,1007.36
2017-12-25T09:03:11.881Z,1007.34
2017-12-25T09:04:11.894Z,1007.39
2017-12-25T09:05:11.909Z,1007.35
2017-12-25T09:06:11.922Z,1007.37
2017-12-25T09:07:11.937Z,1007.36
2017-12-25T09:08:11.951Z,1007.41
2017-12-25T09:09:11.969Z,1007.42
2017-12-25T09:10:11.979Z,1007.43
2017-12-25T09:11:11.994Z,1007.35
2017-12-25T09:12:12.011Z,1007.32
2017-12-25T09:13:12.047Z,1007.39
2017-12-25T09:14:12.037Z,1007.34
2017-12-25T09:15:12.051Z,1007.34
2017-12-25T09:16:12.064Z,1007.33
2017-12-25T09:17:12.080Z,1007.34
2017-12-25T09:18:12.094Z,1007.32
2017-12-25T09:19:12.107Z,1007.32
2017-12-25T09:20:12.121Z,1007.34
2017-12-25T09:21:12.137Z,1007.33
2017-12-25T09:22:12.151Z,1007.37
2017-12-25T09:23:12.163Z,1007.36
2017-12-25T09:24:12.179Z,1007.33
2017-12-25T09:25:12.193Z,1007.31
2017-12-25T09:26:12.209Z,1007.27
2017-12-25T09:27:12.221Z,1007.33
2017-12-25T09:28:12.236Z,1007.32
2017-12-25T09:29:12.251Z,1007.31
2017-12-25T09:30:12.264Z,1007.29
2017-12-25T09:31:12.279Z,1007.34
2017-12-25T09:32:12.293Z,1007.27
2017-12-25T09:33:12.306Z,1007.31
2017-12-25T09:34:12.321Z,1007.28
2017-12-25T09:35:12.337Z,1007.24
2017-12-25T09:36:12.350Z,1007.24
2017-12-25T09:37:12.365Z,1007.26
2017-12-25T09:38:12.380Z,1007.22
2017-12-25T09:39:12.395Z,1007.23
2017-12-25T09:40:12.409Z,1007.21
2017-12-25T09:41:12.423Z,1007.2
2017-12-25T09:42:12.437Z,1007.17
2017-12-25T09:43:12.454Z,1007.14
2017-12-25T09:44:12.465Z,1007.15
2017-12-25T09:45:12.480Z,1007.17
2017-12-25T09:46:12.495Z,1007.14
2017-12-25T09:47:12.509Z,1007.16
2017-12-25T09:48:12.522Z,1007.12
2017-12-25T09:49:12.538Z,1007.13
2017-12-25T09:50:12.553Z,1007.13
2017-12-25T09:51:12.567Z,1007.14
2017-12-25T09:52:12.581Z,1007.1
2017-12-25T09:53:12.595Z,1007.11
2017-12-25T09:54:12.610Z,1007.11
2017-12-25T09:55:12.625Z,1007.1
2017-12-25T09:56:12.642Z,1007.1
2017-12-25T09:57:12.652Z,1007.08
2017-12-25T09:58:12.668Z,1007.09
2017-12-25T09:59:12.681Z,1007.01
2017-12-25T10:00:12.697Z,1007.02
2017-12-25T10:01:12.717Z,1007.02
2017-12-25T10:02:12.726Z,1007.02
2017-12-25T10:03:12.739Z,1007.06
2017-12-25T10:04:12.805Z,1007.03
2017-12-25T10:05:12.770Z,1006.98
2017-12-25T10:06:12.784Z,1006.97
2017-12-25T10:07:12.798Z,1006.96
2017-12-25T10:08:12.811Z,1006.94
2017-12-25T10:09:12.828Z,1006.95
2017-12-25T10:10:12.839Z,1006.91
2017-12-25T10:11:12.855Z,1006.89
2017-12-25T10:12:12.871Z,1006.86
2017-12-25T10:13:12.888Z,1006.9
2017-12-25T10:14:12.899Z,1006.86
2017-12-25T10:15:12.913Z,1006.84
2017-12-25T10:16:12.928Z,1006.78
2017-12-25T10:17:12.942Z,1006.82
2017-12-25T10:18:12.956Z,1006.8
2017-12-25T10:19:13.022Z,1006.79
2017-12-25T10:20:12.985Z,1006.78
2017-12-25T10:21:12.999Z,1006.74
2017-12-25T10:22:13.014Z,1006.77
2017-12-25T10:23:13.031Z,1006.77
2017-12-25T10:24:13.094Z,1006.7
2017-12-25T10:25:13.058Z,1006.71
2017-12-25T10:26:13.072Z,1006.68
2017-12-25T10:27:13.088Z,1006.69
2017-12-25T10:28:13.103Z,1006.71
2017-12-25T10:29:13.115Z,1006.7
2017-12-25T10:30:13.132Z,1006.65
2017-12-25T10:31:13.146Z,1006.66
2017-12-25T10:32:13.201Z,1006.66
2017-12-25T10:33:13.174Z,1006.69
2017-12-25T10:34:13.189Z,1006.63
2017-12-25T10:35:13.204Z,1006.65
2017-12-25T10:36:13.218Z,1006.65
2017-12-25T10:37:13.237Z,1006.61
2017-12-25T10:38:13.252Z,1006.61
2017-12-25T10:39:13.263Z,1006.63
2017-12-25T10:40:13.277Z,1006.61
2017-12-25T10:41:13.292Z,1006.61
2017-12-25T10:42:13.307Z,1006.57
2017-12-25T10:43:13.320Z,1006.57
2017-12-25T10:44:13.335Z,1006.57
2017-12-25T10:45:13.351Z,1006.54
2017-12-25T10:46:13.366Z,1006.55
2017-12-25T10:47:13.379Z,1006.53
2017-12-25T10:48:13.394Z,1006.47
2017-12-25T10:49:13.409Z,1006.47
2017-12-25T10:50:13.424Z,1006.54
2017-12-25T10:51:13.438Z,1006.5
2017-12-25T10:52:13.452Z,1006.45
2017-12-25T10:53:13.467Z,1006.45
2017-12-25T10:54:13.581Z,1006.4
2017-12-25T10:55:13.497Z,1006.43
2017-12-25T10:56:13.512Z,1006.39
2017-12-25T10:57:13.527Z,1006.4
2017-12-25T10:58:13.541Z,1006.38
2017-12-25T10:59:13.556Z,1006.43
2017-12-25T11:00:13.570Z,1006.37
2017-12-25T11:01:13.584Z,1006.39
2017-12-25T11:02:13.600Z,1006.36
2017-12-25T11:03:13.615Z,1006.41
2017-12-25T11:04:13.633Z,1006.37
2017-12-25T11:05:13.643Z,1006.29
2017-12-25T11:06:13.660Z,1006.3
2017-12-25T11:07:13.673Z,1006.31
2017-12-25T11:08:13.691Z,1006.27
2017-12-25T11:09:13.705Z,1006.29
2017-12-25T11:10:13.718Z,1006.27
2017-12-25T11:11:13.734Z,1006.27
2017-12-25T11:12:13.748Z,1006.24
2017-12-25T11:13:13.762Z,1006.23
2017-12-25T11:14:13.778Z,1006.21
2017-12-25T11:15:13.793Z,1006.25
2017-12-25T11:16:13.808Z,1006.25
2017-12-25T11:17:13.823Z,1006.25
2017-12-25T11:18:13.838Z,1006.18
2017-12-25T11:19:13.853Z,1006.19
2017-12-25T11:20:13.867Z,1006.18
2017-12-25T11:21:13.882Z,1006.16
2017-12-25T11:22:13.898Z,1006.19
2017-12-25T11:23:13.912Z,1006.14
2017-12-25T11:24:13.928Z,1006.08
2017-12-25T11:25:13.940Z,1006.09
2017-12-25T11:26:13.956Z,1006.09
2017-12-25T11:27:13.971Z,1006.06
2017-12-25T11:28:13.991Z,1006.08
2017-12-25T11:29:14.002Z,1006.04
2017-12-25T11:30:14.017Z,1006.02
2017-12-25T11:31:14.030Z,1006.04
2017-12-25T11:32:14.045Z,1006.05
2017-12-25T11:33:14.059Z,1006
2017-12-25T11:34:14.075Z,1005.98
2017-12-25T11:35:14.090Z,1005.97
2017-12-25T11:36:14.104Z,1005.98
2017-12-25T11:37:14.119Z,1005.96
2017-12-25T11:38:14.135Z,1006
2017-12-25T11:39:14.150Z,1005.96
2017-12-25T11:40:14.164Z,1005.93
2017-12-25T11:41:14.179Z,1005.89
2017-12-25T11:42:14.193Z,1005.92
2017-12-25T11:43:14.213Z,1005.88
2017-12-25T11:44:14.223Z,1005.85
2017-12-25T11:45:14.235Z,1005.88
2017-12-25T11:46:14.251Z,1005.83
2017-12-25T11:47:14.269Z,1005.79
2017-12-25T11:48:14.283Z,1005.8
2017-12-25T11:49:14.296Z,1005.77
2017-12-25T11:50:14.311Z,1005.78
2017-12-25T11:51:14.327Z,1005.78
2017-12-25T11:52:14.341Z,1005.8
2017-12-25T11:53:14.355Z,1005.81
2017-12-25T11:54:14.370Z,1005.78
2017-12-25T11:55:14.395Z,1005.78
2017-12-25T11:56:14.399Z,1005.75
2017-12-25T11:57:14.453Z,1005.78
2017-12-25T11:58:14.476Z,1005.73
2017-12-25T11:59:14.445Z,1005.71
2017-12-25T12:00:14.459Z,1005.68
2017-12-25T12:01:14.474Z,1005.68
2017-12-25T12:02:14.489Z,1005.64
2017-12-25T12:03:14.504Z,1005.62
2017-12-25T12:04:14.518Z,1005.6
2017-12-25T12:05:14.533Z,1005.55
2017-12-25T12:06:14.548Z,1005.59
2017-12-25T12:07:14.562Z,1005.53